Maryland Heights, Missouri
Current Conditions -  °F | °C
As of 8:51 PM on Wednesday 26 Nov 2014 (Local Time) from KSTL Reporting Station
Overcast Overcast  
Wind Chill: 34°   Ceiling: 900
Heat Index: 34°   Visibility: 2mi
Dew Point: 31°   Wind: 0mph
Humidity: 89%   Direction: NA
Pressure: 30.09"   Gusts: NA
Location:  38.72°N, 90.44°W
Report Text: KSTL 270251Z 00000KT 2SM OVC009 01/M01 A3009 RMK AO2 SNE50 SLP200 P0002 60007 T00111006 53019
Loading
Personal Weather Stations






























Interactive Weather Map New forecast layout! Learn more

10-Day Weather Forecast

Advertisements
Track Severe Weather on mobile